Pfugerville's Hourly Summary for Thursday, April 20, 2017
Hour Temp
(f)
RH
(%)
Solar Rad.
(MJ/m2)
Rainfall
(in)
Wind
(mph)
4/20/2017 12:00 AM 69 100 0 0 4.9
4/20/2017 1:00 AM 68 100 0 0 3.33
4/20/2017 2:00 AM 68 100 0 0 5.46
4/20/2017 3:00 AM 69 100 0 0 5.71
4/20/2017 4:00 AM 69 100 0 0 5.65
4/20/2017 5:00 AM 69 100 0 0 5.1
4/20/2017 6:00 AM 68 100 0 0 4.87
4/20/2017 7:00 AM 68 100 0 0 5.2
4/20/2017 8:00 AM 68 100 0.11 0 5.66
4/20/2017 9:00 AM 69 100 0.26 0 5.71
4/20/2017 10:00 AM 71 100 0.54 0 6.76
4/20/2017 11:00 AM 72 100 0.65 0 7.54
4/20/2017 12:00 PM 74 100 1.1 0 7.09
4/20/2017 1:00 PM 76 99 1.74 0 5.43
4/20/2017 2:00 PM 80 81 2.95 0 6.86
4/20/2017 3:00 PM 82 73 2.93 0 6.55
4/20/2017 4:00 PM 82 72 2.15 0 7.06
4/20/2017 5:00 PM 83 65 1.85 0 7.33
4/20/2017 6:00 PM 83 66 1.06 0 6.54
4/20/2017 7:00 PM 81 74 0.69 0 6.76
4/20/2017 8:00 PM 78 79 0.22 0 5.07
4/20/2017 9:00 PM 75 86 0 0 3.09
4/20/2017 10:00 PM 73 99 0 0 3.02
4/20/2017 11:00 PM 72 100 0 0 4.7
Data Summary 73 91 16.25 0.00 5.64